createdAt,value
2019-05-01T00:00:31.850Z,1016.80
2019-05-01T00:01:31.678Z,1016.78
2019-05-01T00:02:31.731Z,1016.79
2019-05-01T00:03:31.632Z,1016.76
2019-05-01T00:04:31.640Z,1016.77
2019-05-01T00:05:31.649Z,1016.76
2019-05-01T00:06:31.559Z,1016.74
2019-05-01T00:07:31.572Z,1016.75
2019-05-01T00:08:31.499Z,1016.73
2019-05-01T00:09:31.585Z,1016.71
2019-05-01T00:10:31.448Z,1016.71
2019-05-01T00:11:31.496Z,1016.76
2019-05-01T00:12:31.398Z,1016.74
2019-05-01T00:13:31.399Z,1016.75
2019-05-01T00:14:31.353Z,1016.76
2019-05-01T00:15:31.412Z,1016.71
2019-05-01T00:16:31.288Z,1016.68
2019-05-01T00:17:31.270Z,1016.71
2019-05-01T00:18:31.332Z,1016.70
2019-05-01T00:19:31.206Z,1016.66
2019-05-01T00:20:31.247Z,1016.66
2019-05-01T00:21:31.248Z,1016.66
2019-05-01T00:22:31.140Z,1016.63
2019-05-01T00:23:31.170Z,1016.61
2019-05-01T00:24:31.078Z,1016.65
2019-05-01T00:25:31.083Z,1016.60
2019-05-01T00:26:31.040Z,1016.60
2019-05-01T00:27:30.999Z,1016.57
2019-05-01T00:28:30.989Z,1016.54
2019-05-01T00:29:30.938Z,1016.53
2019-05-01T00:30:31.007Z,1016.50
2019-05-01T00:31:30.899Z,1016.52
2019-05-01T00:32:30.869Z,1016.48
2019-05-01T00:33:30.848Z,1016.45
2019-05-01T00:34:30.929Z,1016.43
2019-05-01T00:35:30.810Z,1016.44
2019-05-01T00:36:30.842Z,1016.43
2019-05-01T00:37:30.744Z,1016.39
2019-05-01T00:38:30.763Z,1016.37
2019-05-01T00:39:30.692Z,1016.42
2019-05-01T00:40:30.777Z,1016.41
2019-05-01T00:41:30.639Z,1016.40
2019-05-01T00:42:30.689Z,1016.37
2019-05-01T00:43:30.687Z,1016.35
2019-05-01T00:44:30.558Z,1016.31
2019-05-01T00:45:30.611Z,1016.33
2019-05-01T00:46:30.500Z,1016.34
2019-05-01T00:47:30.509Z,1016.32
2019-05-01T00:48:30.447Z,1016.34
2019-05-01T00:49:30.528Z,1016.32
2019-05-01T00:50:30.402Z,1016.32
2019-05-01T00:51:30.449Z,1016.32
2019-05-01T00:52:30.351Z,1016.32
2019-05-01T00:53:30.349Z,1016.31
2019-05-01T00:54:30.358Z,1016.30
2019-05-01T00:55:30.269Z,1016.34
2019-05-01T00:56:30.267Z,1016.32
2019-05-01T00:57:30.229Z,1016.34
2019-05-01T00:58:30.288Z,1016.32
2019-05-01T00:59:30.188Z,1016.32
2019-05-01T01:00:42.402Z,1016.34
2019-05-01T01:01:30.107Z,1016.26
2019-05-01T01:02:30.107Z,1016.28
2019-05-01T01:03:30.057Z,1016.22
2019-05-01T01:04:30.133Z,1016.20
2019-05-01T01:05:30.009Z,1016.24
2019-05-01T01:06:30.038Z,1016.19
2019-05-01T01:07:29.947Z,1016.22
2019-05-01T01:08:29.950Z,1016.19
2019-05-01T01:09:29.897Z,1016.17
2019-05-01T01:10:29.868Z,1016.21
2019-05-01T01:11:29.849Z,1016.20
2019-05-01T01:12:29.878Z,1016.17
2019-05-01T01:13:29.789Z,1016.12
2019-05-01T01:14:29.788Z,1016.17
2019-05-01T01:15:29.749Z,1016.09
2019-05-01T01:16:29.797Z,1016.07
2019-05-01T01:17:29.689Z,1016.08
2019-05-01T01:18:29.706Z,1016.13
2019-05-01T01:19:29.640Z,1016.11
2019-05-01T01:20:29.620Z,1016.16
2019-05-01T01:21:29.589Z,1016.13
2019-05-01T01:22:29.637Z,1016.13
2019-05-01T01:23:29.539Z,1016.14
2019-05-01T01:24:29.547Z,1016.15
2019-05-01T01:25:29.478Z,1016.09
2019-05-01T01:26:29.451Z,1016.09
2019-05-01T01:27:29.417Z,1016.07
2019-05-01T01:28:29.477Z,1016.05
2019-05-01T01:29:29.369Z,1016.03
2019-05-01T01:30:29.403Z,1016.07
2019-05-01T01:31:29.318Z,1016.06
2019-05-01T01:32:29.299Z,1016.09
2019-05-01T01:33:29.318Z,1016.10
2019-05-01T01:34:29.228Z,1016.13
2019-05-01T01:35:29.317Z,1016.12
2019-05-01T01:36:29.181Z,1016.10
2019-05-01T01:37:29.160Z,1016.12
2019-05-01T01:38:29.150Z,1016.08
2019-05-01T01:39:29.147Z,1016.05
2019-05-01T01:40:29.068Z,1016.05
2019-05-01T01:41:29.157Z,1016.06
2019-05-01T01:42:29.022Z,1016.07
2019-05-01T01:43:29.003Z,1016.04
2019-05-01T01:44:29.088Z,1016.09
2019-05-01T01:45:28.945Z,1016.14
2019-05-01T01:46:28.989Z,1016.13
2019-05-01T01:47:28.902Z,1016.16
2019-05-01T01:48:28.858Z,1016.12
2019-05-01T01:49:28.829Z,1016.10
2019-05-01T01:50:28.915Z,1016.07
2019-05-01T01:51:28.788Z,1016.05
2019-05-01T01:52:28.843Z,1016.06
2019-05-01T01:53:28.725Z,1016.05
2019-05-01T01:54:28.709Z,1016.02
2019-05-01T01:55:28.750Z,1016.03
2019-05-01T01:56:28.647Z,1016.04
2019-05-01T01:57:28.656Z,1016.05
2019-05-01T01:58:28.597Z,1016.02
2019-05-01T01:59:28.566Z,1016.01
2019-05-01T02:00:28.538Z,1015.99
2019-05-01T02:01:28.597Z,1015.96
2019-05-01T02:02:28.487Z,1015.97
2019-05-01T02:03:28.496Z,1015.94
2019-05-01T02:04:28.437Z,1015.95
2019-05-01T02:05:28.518Z,1015.99
2019-05-01T02:06:28.378Z,1016.01
2019-05-01T02:07:28.420Z,1016.00
2019-05-01T02:08:28.337Z,1016.02
2019-05-01T02:09:28.349Z,1016.02
2019-05-01T02:10:42.180Z,1015.98
2019-05-01T02:11:28.238Z,1016.00
2019-05-01T02:12:28.259Z,1015.98
2019-05-01T02:13:28.188Z,1015.95
2019-05-01T02:14:28.273Z,1015.95
2019-05-01T02:15:28.136Z,1015.91
2019-05-01T02:16:28.181Z,1015.89
2019-05-01T02:17:28.086Z,1015.89
2019-05-01T02:18:28.097Z,1015.89
2019-05-01T02:19:28.027Z,1015.86
2019-05-01T02:20:28.106Z,1015.89
2019-05-01T02:21:28.010Z,1015.86
2019-05-01T02:22:27.945Z,1015.88
2019-05-01T02:23:28.017Z,1015.93
2019-05-01T02:24:27.903Z,1015.89
2019-05-01T02:25:27.948Z,1015.88
2019-05-01T02:26:27.835Z,1015.86
2019-05-01T02:27:27.845Z,1015.82
2019-05-01T02:28:27.791Z,1015.81
2019-05-01T02:29:27.857Z,1015.80
2019-05-01T02:30:27.739Z,1015.80
2019-05-01T02:31:29.274Z,1015.77
2019-05-01T02:32:27.679Z,1015.79
2019-05-01T02:33:27.688Z,1015.75
2019-05-01T02:34:27.629Z,1015.73
2019-05-01T02:35:30.326Z,1015.70
2019-05-01T02:36:27.577Z,1015.69
2019-05-01T02:37:27.550Z,1015.67
2019-05-01T02:38:27.517Z,1015.67
2019-05-01T02:39:27.516Z,1015.63
2019-05-01T02:40:27.467Z,1015.65
2019-05-01T02:41:27.538Z,1015.66
2019-05-01T02:42:27.414Z,1015.64
2019-05-01T02:43:27.379Z,1015.64
2019-05-01T02:44:27.460Z,1015.66
2019-05-01T02:45:27.330Z,1015.64
2019-05-01T02:46:27.377Z,1015.56
2019-05-01T02:47:27.278Z,1015.63
2019-05-01T02:48:27.248Z,1015.61
2019-05-01T02:49:27.229Z,1015.59
2019-05-01T02:50:27.297Z,1015.59
2019-05-01T02:51:27.175Z,1015.59
2019-05-01T02:52:27.211Z,1015.57
2019-05-01T02:53:27.109Z,1015.59
2019-05-01T02:54:27.123Z,1015.59
2019-05-01T02:55:27.057Z,1015.61
2019-05-01T02:56:27.131Z,1015.62
2019-05-01T02:57:26.997Z,1015.60
2019-05-01T02:58:27.038Z,1015.64
2019-05-01T02:59:27.050Z,1015.61
2019-05-01T03:00:26.919Z,1015.60
2019-05-01T03:01:26.962Z,1015.56
2019-05-01T03:02:26.961Z,1015.61
2019-05-01T03:03:26.878Z,1015.55
2019-05-01T03:04:26.810Z,1015.57
2019-05-01T03:05:26.885Z,1015.59
2019-05-01T03:06:26.760Z,1015.60
2019-05-01T03:07:26.799Z,1015.59
2019-05-01T03:08:26.709Z,1015.60
2019-05-01T03:09:26.717Z,1015.64
2019-05-01T03:10:26.647Z,1015.60
2019-05-01T03:11:26.727Z,1015.61
2019-05-01T03:12:26.590Z,1015.61
2019-05-01T03:13:26.635Z,1015.62
2019-05-01T03:14:26.537Z,1015.62
2019-05-01T03:15:26.509Z,1015.64
2019-05-01T03:16:26.506Z,1015.61
2019-05-01T03:17:26.559Z,1015.58
2019-05-01T03:18:26.431Z,1015.56
2019-05-01T03:19:26.476Z,1015.54
2019-05-01T03:20:26.377Z,1015.55
2019-05-01T03:21:26.355Z,1015.57
2019-05-01T03:22:26.398Z,1015.58
2019-05-01T03:23:26.296Z,1015.56
2019-05-01T03:24:26.310Z,1015.55
2019-05-01T03:25:26.248Z,1015.58
2019-05-01T03:26:26.209Z,1015.56
2019-05-01T03:27:26.181Z,1015.53
2019-05-01T03:28:26.228Z,1015.53
2019-05-01T03:29:26.126Z,1015.53
2019-05-01T03:30:26.144Z,1015.53
2019-05-01T03:31:26.120Z,1015.50
2019-05-01T03:32:26.037Z,1015.53
2019-05-01T03:33:26.059Z,1015.54
2019-05-01T03:34:25.999Z,1015.54
2019-05-01T03:35:25.978Z,1015.57
2019-05-01T03:36:25.941Z,1015.58
2019-05-01T03:37:25.908Z,1015.58
2019-05-01T03:38:25.887Z,1015.54
2019-05-01T03:39:25.902Z,1015.52
2019-05-01T03:40:25.819Z,1015.49
2019-05-01T03:41:25.827Z,1015.53
2019-05-01T03:42:25.767Z,1015.50
2019-05-01T03:43:25.749Z,1015.52
2019-05-01T03:44:25.729Z,1015.52
2019-05-01T03:45:25.689Z,1015.50
2019-05-01T03:46:25.746Z,1015.50
2019-05-01T03:47:25.629Z,1015.50
2019-05-01T03:48:25.598Z,1015.49
2019-05-01T03:49:25.674Z,1015.44
2019-05-01T03:50:25.548Z,1015.44
2019-05-01T03:51:25.577Z,1015.40
2019-05-01T03:52:25.501Z,1015.40
2019-05-01T03:53:25.500Z,1015.42
2019-05-01T03:54:25.440Z,1015.41
2019-05-01T03:55:25.496Z,1015.39
2019-05-01T03:56:25.385Z,1015.40
2019-05-01T03:57:25.507Z,1015.40
2019-05-01T03:58:25.338Z,1015.40
2019-05-01T03:59:25.399Z,1015.40
2019-05-01T04:00:25.268Z,1015.39
2019-05-01T04:01:25.338Z,1015.39
2019-05-01T04:02:33.470Z,1015.33
2019-05-01T04:03:25.188Z,1015.33
2019-05-01T04:04:25.156Z,1015.35
2019-05-01T04:05:25.135Z,1015.36
2019-05-01T04:06:25.178Z,1015.37
2019-05-01T04:07:25.079Z,1015.41
2019-05-01T04:08:25.077Z,1015.36
2019-05-01T04:09:25.028Z,1015.40
2019-05-01T04:10:24.996Z,1015.41
2019-05-01T04:11:25.004Z,1015.41
2019-05-01T04:12:24.936Z,1015.41
2019-05-01T04:13:25.022Z,1015.44
2019-05-01T04:14:24.886Z,1015.39
2019-05-01T04:15:24.862Z,1015.40
2019-05-01T04:16:24.838Z,1015.36
2019-05-01T04:17:24.841Z,1015.39
2019-05-01T04:18:24.776Z,1015.36
2019-05-01T04:19:24.874Z,1015.37
2019-05-01T04:20:24.730Z,1015.36
2019-05-01T04:21:24.876Z,1015.35
2019-05-01T04:22:24.807Z,1015.38
2019-05-01T04:23:24.813Z,1015.33
2019-05-01T04:24:24.632Z,1015.35
2019-05-01T04:25:24.704Z,1015.37
2019-05-01T04:26:24.765Z,1015.36
2019-05-01T04:27:24.525Z,1015.34
2019-05-01T04:28:24.643Z,1015.37
2019-05-01T04:29:24.478Z,1015.33
2019-05-01T04:30:24.516Z,1015.32
2019-05-01T04:31:24.421Z,1015.29
2019-05-01T04:32:24.398Z,1015.31
2019-05-01T04:33:24.530Z,1015.32
2019-05-01T04:34:24.339Z,1015.33
2019-05-01T04:35:24.350Z,1015.34
2019-05-01T04:36:24.288Z,1015.31
2019-05-01T04:37:24.256Z,1015.36
2019-05-01T04:38:24.240Z,1015.34
2019-05-01T04:39:24.279Z,1015.35
2019-05-01T04:40:24.169Z,1015.33
2019-05-01T04:41:24.196Z,1015.33
2019-05-01T04:42:24.119Z,1015.34
2019-05-01T04:43:24.109Z,1015.31
2019-05-01T04:44:24.072Z,1015.36
2019-05-01T04:45:24.118Z,1015.39
2019-05-01T04:46:24.007Z,1015.39
2019-05-01T04:47:24.028Z,1015.36
2019-05-01T04:48:24.049Z,1015.38
2019-05-01T04:49:23.918Z,1015.40
2019-05-01T04:50:23.958Z,1015.42
2019-05-01T04:51:23.868Z,1015.42
2019-05-01T04:52:23.890Z,1015.44
2019-05-01T04:53:23.807Z,1015.46
2019-05-01T04:54:23.875Z,1015.46
2019-05-01T04:55:23.928Z,1015.49
2019-05-01T04:56:23.788Z,1015.51
2019-05-01T04:57:23.719Z,1015.48
2019-05-01T04:58:23.698Z,1015.49
2019-05-01T04:59:23.711Z,1015.49
2019-05-01T05:00:23.616Z,1015.46
2019-05-01T05:01:23.617Z,1015.51
2019-05-01T05:02:23.573Z,1015.51
2019-05-01T05:03:23.627Z,1015.50
2019-05-01T05:04:23.506Z,1015.49
2019-05-01T05:05:23.547Z,1015.51
2019-05-01T05:06:23.456Z,1015.50
2019-05-01T05:07:23.457Z,1015.54
2019-05-01T05:08:23.406Z,1015.50
2019-05-01T05:09:23.478Z,1015.51
2019-05-01T05:10:23.351Z,1015.51
2019-05-01T05:11:23.377Z,1015.51
2019-05-01T05:12:23.287Z,1015.52
2019-05-01T05:13:23.288Z,1015.53
2019-05-01T05:14:23.245Z,1015.54
2019-05-01T05:15:23.206Z,1015.54
2019-05-01T05:16:23.186Z,1015.54
2019-05-01T05:17:23.219Z,1015.53
2019-05-01T05:18:23.128Z,1015.51
2019-05-01T05:19:23.130Z,1015.55
2019-05-01T05:20:23.079Z,1015.56
2019-05-01T05:21:23.039Z,1015.58
2019-05-01T05:22:23.047Z,1015.54
2019-05-01T05:23:22.993Z,1015.54
2019-05-01T05:24:23.068Z,1015.59
2019-05-01T05:25:22.928Z,1015.54
2019-05-01T05:26:22.911Z,1015.54
2019-05-01T05:27:22.877Z,1015.55
2019-05-01T05:28:22.889Z,1015.55
2019-05-01T05:29:22.829Z,1015.53
2019-05-01T05:30:22.896Z,1015.56
2019-05-01T05:31:22.767Z,1015.56
2019-05-01T05:32:22.807Z,1015.56
2019-05-01T05:33:22.718Z,1015.55
2019-05-01T05:34:22.731Z,1015.57
2019-05-01T05:35:22.672Z,1015.57
2019-05-01T05:36:22.749Z,1015.54
2019-05-01T05:37:22.675Z,1015.55
2019-05-01T05:38:22.577Z,1015.57
2019-05-01T05:39:22.657Z,1015.61
2019-05-01T05:40:22.517Z,1015.63
2019-05-01T05:41:22.568Z,1015.61
2019-05-01T05:42:22.467Z,1015.65
2019-05-01T05:43:22.477Z,1015.66
2019-05-01T05:44:22.405Z,1015.63
2019-05-01T05:45:22.497Z,1015.62
2019-05-01T05:46:22.358Z,1015.62
2019-05-01T05:47:25.307Z,1015.63
2019-05-01T05:48:22.307Z,1015.64
2019-05-01T05:49:22.283Z,1015.64
2019-05-01T05:50:22.340Z,1015.63
2019-05-01T05:51:22.217Z,1015.62
2019-05-01T05:52:22.238Z,1015.68
2019-05-01T05:53:22.166Z,1015.64
2019-05-01T05:54:22.148Z,1015.62
2019-05-01T05:55:22.115Z,1015.64
2019-05-01T05:56:22.166Z,1015.63
2019-05-01T05:57:22.058Z,1015.63
2019-05-01T05:58:22.078Z,1015.70
2019-05-01T05:59:22.008Z,1015.71
2019-05-01T06:00:22.097Z,1015.76
2019-05-01T06:01:21.948Z,1015.77
2019-05-01T06:02:22.019Z,1015.78
2019-05-01T06:03:31.011Z,1015.75
2019-05-01T06:04:22.017Z,1015.73
2019-05-01T06:05:21.835Z,1015.74
2019-05-01T06:06:21.928Z,1015.70
2019-05-01T06:07:21.789Z,1015.68
2019-05-01T06:08:21.836Z,1015.67
2019-05-01T06:09:21.730Z,1015.67
2019-05-01T06:10:23.259Z,1015.68
2019-05-01T06:11:21.678Z,1015.72
2019-05-01T06:12:21.771Z,1015.68
2019-05-01T06:13:22.985Z,1015.68
2019-05-01T06:14:21.676Z,1015.72
2019-05-01T06:15:21.566Z,1015.73
2019-05-01T06:16:21.698Z,1015.74
2019-05-01T06:17:23.679Z,1015.73
2019-05-01T06:18:21.607Z,1015.73
2019-05-01T06:19:21.456Z,1015.74
2019-05-01T06:20:25.991Z,1015.74
2019-05-01T06:21:21.403Z,1015.73
2019-05-01T06:22:21.526Z,1015.73
2019-05-01T06:23:22.521Z,1015.78
2019-05-01T06:24:21.448Z,1015.74
2019-05-01T06:25:22.765Z,1015.75
2019-05-01T06:26:21.268Z,1015.74
2019-05-01T06:27:21.356Z,1015.75
2019-05-01T06:28:24.876Z,1015.69
2019-05-01T06:29:21.378Z,1015.66
2019-05-01T06:30:21.174Z,1015.65
2019-05-01T06:31:22.996Z,1015.68
2019-05-01T06:32:21.108Z,1015.67
2019-05-01T06:33:21.201Z,1015.68
2019-05-01T06:34:23.895Z,1015.72
2019-05-01T06:35:21.219Z,1015.70
2019-05-01T06:36:23.699Z,1015.65
2019-05-01T06:37:25.245Z,1015.68
2019-05-01T06:38:21.129Z,1015.69
2019-05-01T06:39:20.917Z,1015.67
2019-05-01T06:40:22.433Z,1015.70
2019-05-01T06:41:20.858Z,1015.70
2019-05-01T06:42:20.839Z,1015.71
2019-05-01T06:43:25.220Z,1015.71
2019-05-01T06:44:20.968Z,1015.72
2019-05-01T06:45:20.758Z,1015.74
2019-05-01T06:46:22.160Z,1015.70
2019-05-01T06:47:20.699Z,1015.72
2019-05-01T06:48:20.686Z,1015.76
2019-05-01T06:49:24.353Z,1015.74
2019-05-01T06:50:20.617Z,1015.74
2019-05-01T06:51:20.716Z,1015.77
2019-05-01T06:52:20.557Z,1015.76
2019-05-01T06:53:20.538Z,1015.80
2019-05-01T06:54:20.524Z,1015.80
2019-05-01T06:55:22.594Z,1015.73
2019-05-01T06:56:20.457Z,1015.81
2019-05-01T06:57:20.545Z,1015.84
2019-05-01T06:58:21.726Z,1015.84
2019-05-01T06:59:20.390Z,1015.85
2019-05-01T07:00:20.467Z,1015.85
2019-05-01T07:01:23.848Z,1015.84
2019-05-01T07:02:20.488Z,1015.84
2019-05-01T07:03:20.270Z,1015.82
2019-05-01T07:04:20.238Z,1015.81
2019-05-01T07:05:20.229Z,1015.80
2019-05-01T07:06:20.408Z,1015.77
2019-05-01T07:07:25.100Z,1015.77
2019-05-01T07:08:24.704Z,1015.78
2019-05-01T07:09:27.881Z,1015.80
2019-05-01T07:10:30.616Z,1015.71
2019-05-01T07:11:20.066Z,1015.77
2019-05-01T07:12:24.017Z,1015.77
2019-05-01T07:13:19.999Z,1015.75
2019-05-01T07:14:20.061Z,1015.81
2019-05-01T07:15:21.891Z,1015.77
2019-05-01T07:16:19.967Z,1015.79
2019-05-01T07:17:19.918Z,1015.78
2019-05-01T07:18:24.146Z,1015.82
2019-05-01T07:19:19.848Z,1015.81
2019-05-01T07:20:19.798Z,1015.80
2019-05-01T07:21:22.882Z,1015.81
2019-05-01T07:22:19.811Z,1015.82
2019-05-01T07:23:19.736Z,1015.81
2019-05-01T07:24:23.998Z,1015.81
2019-05-01T07:25:19.695Z,1015.82
2019-05-01T07:26:19.652Z,1015.83
2019-05-01T07:27:23.621Z,1015.80
2019-05-01T07:28:19.602Z,1015.83
2019-05-01T07:29:19.646Z,1015.82
2019-05-01T07:30:19.804Z,1015.79
2019-05-01T07:31:19.518Z,1015.76
2019-05-01T07:32:19.489Z,1015.77
2019-05-01T07:33:19.576Z,1015.77
2019-05-01T07:34:21.679Z,1015.75
2019-05-01T07:35:19.486Z,1015.71
2019-05-01T07:36:19.387Z,1015.74
2019-05-01T07:37:20.740Z,1015.71
2019-05-01T07:38:19.349Z,1015.71
2019-05-01T07:39:19.409Z,1015.81
2019-05-01T07:40:20.765Z,1015.78
2019-05-01T07:41:19.340Z,1015.76
2019-05-01T07:42:19.233Z,1015.78
2019-05-01T07:43:24.034Z,1015.77
2019-05-01T07:44:19.177Z,1015.76
2019-05-01T07:45:19.248Z,1015.74
2019-05-01T07:46:19.601Z,1015.77
2019-05-01T07:47:19.098Z,1015.76
2019-05-01T07:48:19.066Z,1015.77
2019-05-01T07:49:19.179Z,1015.77
2019-05-01T07:50:19.034Z,1015.79
2019-05-01T07:51:19.087Z,1015.80
2019-05-01T07:52:18.967Z,1015.78
2019-05-01T07:53:18.936Z,1015.78
2019-05-01T07:54:18.917Z,1015.77
2019-05-01T07:55:20.108Z,1015.77
2019-05-01T07:56:22.835Z,1015.80
2019-05-01T07:57:18.840Z,1015.76
2019-05-01T07:58:18.809Z,1015.76
2019-05-01T07:59:22.779Z,1015.80
2019-05-01T08:00:18.748Z,1015.81
2019-05-01T08:01:20.174Z,1015.83
2019-05-01T08:02:18.697Z,1015.85
2019-05-01T08:03:18.767Z,1015.81
2019-05-01T08:04:35.261Z,1015.84
2019-05-01T08:05:18.628Z,1015.82
2019-05-01T08:06:21.762Z,1015.82
2019-05-01T08:07:18.570Z,1015.80
2019-05-01T08:08:18.701Z,1015.81
2019-05-01T08:09:18.599Z,1015.79
2019-05-01T08:10:20.956Z,1015.80
2019-05-01T08:11:18.618Z,1015.79
2019-05-01T08:12:18.852Z,1015.79
2019-05-01T08:13:18.526Z,1015.77
2019-05-01T08:14:18.667Z,1015.78
2019-05-01T08:15:18.359Z,1015.79
2019-05-01T08:16:18.448Z,1015.78
2019-05-01T08:17:19.819Z,1015.81
2019-05-01T08:18:18.457Z,1015.79
2019-05-01T08:19:18.262Z,1015.84
2019-05-01T08:20:18.226Z,1015.84
2019-05-01T08:21:21.268Z,1015.82
2019-05-01T08:22:18.177Z,1015.79
2019-05-01T08:23:18.291Z,1015.83
2019-05-01T08:24:22.785Z,1015.82
2019-05-01T08:25:18.099Z,1015.77
2019-05-01T08:26:18.078Z,1015.81
2019-05-01T08:27:20.213Z,1015.82
2019-05-01T08:28:18.018Z,1015.81
2019-05-01T08:29:18.137Z,1015.86
2019-05-01T08:30:18.726Z,1015.87
2019-05-01T08:31:17.954Z,1015.82
2019-05-01T08:32:18.045Z,1015.81
2019-05-01T08:33:17.898Z,1015.82
2019-05-01T08:34:20.733Z,1015.84
2019-05-01T08:35:17.837Z,1015.85
2019-05-01T08:36:17.820Z,1015.84
2019-05-01T08:37:22.409Z,1015.85
2019-05-01T08:38:17.759Z,1015.88
2019-05-01T08:39:17.898Z,1015.85
2019-05-01T08:40:20.540Z,1015.88
2019-05-01T08:41:17.808Z,1015.84
2019-05-01T08:42:17.656Z,1015.87
2019-05-01T08:43:19.372Z,1015.82
2019-05-01T08:44:17.610Z,1015.89
2019-05-01T08:45:17.726Z,1015.88
2019-05-01T08:46:17.788Z,1015.89
2019-05-01T08:47:20.775Z,1015.88
2019-05-01T08:48:17.512Z,1015.86
2019-05-01T08:49:17.658Z,1015.91
2019-05-01T08:50:19.876Z,1015.88
2019-05-01T08:51:17.567Z,1015.88
2019-05-01T08:52:17.402Z,1015.84
2019-05-01T08:53:18.143Z,1015.85
2019-05-01T08:54:17.356Z,1015.88
2019-05-01T08:55:17.498Z,1015.88
2019-05-01T08:56:22.006Z,1015.88
2019-05-01T08:57:17.411Z,1015.90
2019-05-01T08:58:17.273Z,1015.89
2019-05-01T08:59:19.433Z,1015.90
2019-05-01T09:00:17.217Z,1015.93
2019-05-01T09:01:17.342Z,1015.90
2019-05-01T09:02:17.149Z,1015.92
2019-05-01T09:03:18.702Z,1015.90
2019-05-01T09:04:18.813Z,1015.88
2019-05-01T09:05:28.264Z,1015.89
2019-05-01T09:06:17.047Z,1015.82
2019-05-01T09:07:19.149Z,1015.85
2019-05-01T09:08:16.998Z,1015.86
2019-05-01T09:09:17.191Z,1015.83
2019-05-01T09:10:21.145Z,1015.87
2019-05-01T09:11:17.109Z,1015.89
2019-05-01T09:12:16.906Z,1015.85
2019-05-01T09:13:18.944Z,1015.86
2019-05-01T09:14:16.873Z,1015.90
2019-05-01T09:15:16.821Z,1015.90
2019-05-01T09:16:19.169Z,1015.85
2019-05-01T09:17:16.767Z,1015.88
2019-05-01T09:18:18.897Z,1015.85
2019-05-01T09:19:16.721Z,1015.79
2019-05-01T09:20:16.906Z,1015.80
2019-05-01T09:21:16.680Z,1015.78
2019-05-01T09:22:16.775Z,1015.83
2019-05-01T09:23:16.627Z,1015.88
2019-05-01T09:24:16.686Z,1015.78
2019-05-01T09:25:16.569Z,1015.80
2019-05-01T09:26:16.589Z,1015.82
2019-05-01T09:27:18.737Z,1015.80
2019-05-01T09:28:16.611Z,1015.76
2019-05-01T09:29:17.833Z,1015.75
2019-05-01T09:30:16.436Z,1015.71
2019-05-01T09:31:16.408Z,1015.75
2019-05-01T09:32:18.704Z,1015.71
2019-05-01T09:33:16.369Z,1015.75
2019-05-01T09:34:19.259Z,1015.73
2019-05-01T09:35:16.714Z,1015.77
2019-05-01T09:36:16.288Z,1015.75
2019-05-01T09:37:16.268Z,1015.75
2019-05-01T09:38:16.369Z,1015.77
2019-05-01T09:39:16.216Z,1015.72
2019-05-01T09:40:16.283Z,1015.72
2019-05-01T09:41:16.290Z,1015.70
2019-05-01T09:42:23.187Z,1015.66
2019-05-01T09:43:16.201Z,1015.70
2019-05-01T09:44:16.087Z,1015.74
2019-05-01T09:45:16.124Z,1015.65
2019-05-01T09:46:16.037Z,1015.65
2019-05-01T09:47:16.129Z,1015.63
2019-05-01T09:48:15.987Z,1015.61
2019-05-01T09:49:18.215Z,1015.61
2019-05-01T09:50:15.945Z,1015.64
2019-05-01T09:51:16.055Z,1015.67
2019-05-01T09:52:18.994Z,1015.64
2019-05-01T09:53:15.962Z,1015.61
2019-05-01T09:54:15.838Z,1015.69
2019-05-01T09:55:17.970Z,1015.72
2019-05-01T09:56:15.787Z,1015.65
2019-05-01T09:57:15.768Z,1015.67
2019-05-01T09:58:15.738Z,1015.64
2019-05-01T09:59:17.487Z,1015.63
2019-05-01T10:00:16.865Z,1015.65
2019-05-01T10:01:15.707Z,1015.64
2019-05-01T10:02:15.647Z,1015.68
2019-05-01T10:03:16.924Z,1015.65
2019-05-01T10:04:15.642Z,1015.65
2019-05-01T10:05:28.229Z,1015.67
2019-05-01T10:06:17.196Z,1015.67
2019-05-01T10:07:15.554Z,1015.66
2019-05-01T10:08:15.496Z,1015.63
2019-05-01T10:09:16.897Z,1015.64
2019-05-01T10:10:15.475Z,1015.62
2019-05-01T10:11:15.420Z,1015.63
2019-05-01T10:12:15.478Z,1015.61
2019-05-01T10:13:17.667Z,1015.59
2019-05-01T10:14:15.351Z,1015.58
2019-05-01T10:15:15.401Z,1015.58
2019-05-01T10:16:15.302Z,1015.58
2019-05-01T10:17:15.317Z,1015.58
2019-05-01T10:18:15.239Z,1015.57
2019-05-01T10:19:15.218Z,1015.56
2019-05-01T10:20:15.199Z,1015.57
2019-05-01T10:21:15.249Z,1015.56
2019-05-01T10:22:15.161Z,1015.54
2019-05-01T10:23:15.163Z,1015.56
2019-05-01T10:24:15.163Z,1015.53
2019-05-01T10:25:15.078Z,1015.51
2019-05-01T10:26:18.986Z,1015.49
2019-05-01T10:27:17.108Z,1015.52
2019-05-01T10:28:17.712Z,1015.49
2019-05-01T10:29:14.978Z,1015.51
2019-05-01T10:30:14.950Z,1015.50
2019-05-01T10:31:14.999Z,1015.48
2019-05-01T10:32:16.891Z,1015.49
2019-05-01T10:33:14.924Z,1015.47
2019-05-01T10:34:14.858Z,1015.45
2019-05-01T10:35:19.205Z,1015.42
2019-05-01T10:36:20.421Z,1015.36
2019-05-01T10:37:14.775Z,1015.42
2019-05-01T10:38:14.847Z,1015.42
2019-05-01T10:39:16.079Z,1015.37
2019-05-01T10:40:14.698Z,1015.35
2019-05-01T10:41:14.677Z,1015.34
2019-05-01T10:42:14.679Z,1015.32
2019-05-01T10:43:14.629Z,1015.35
2019-05-01T10:44:14.700Z,1015.34
2019-05-01T10:45:14.580Z,1015.33
2019-05-01T10:46:14.556Z,1015.34
2019-05-01T10:47:14.613Z,1015.34
2019-05-01T10:48:14.519Z,1015.29
2019-05-01T10:49:14.521Z,1015.33
2019-05-01T10:50:14.456Z,1015.31
2019-05-01T10:51:14.436Z,1015.30
2019-05-01T10:52:14.676Z,1015.26
2019-05-01T10:53:14.394Z,1015.28
2019-05-01T10:54:14.447Z,1015.26
2019-05-01T10:55:14.341Z,1015.26
2019-05-01T10:56:14.359Z,1015.20
2019-05-01T10:57:14.288Z,1015.25
2019-05-01T10:58:17.954Z,1015.28
2019-05-01T10:59:14.237Z,1015.25
2019-05-01T11:00:14.286Z,1015.27
2019-05-01T11:01:14.186Z,1015.24
2019-05-01T11:02:14.169Z,1015.22
2019-05-01T11:03:14.138Z,1015.19
2019-05-01T11:04:14.233Z,1015.19
2019-05-01T11:05:14.101Z,1015.17
2019-05-01T11:06:14.126Z,1015.17
2019-05-01T11:07:14.042Z,1015.11
2019-05-01T11:08:14.039Z,1015.10
2019-05-01T11:09:13.988Z,1015.08
2019-05-01T11:10:14.048Z,1015.13
2019-05-01T11:11:13.949Z,1015.09
2019-05-01T11:12:13.960Z,1015.11
2019-05-01T11:13:13.898Z,1015.10
2019-05-01T11:14:13.975Z,1015.03
2019-05-01T11:15:13.847Z,1015.03
2019-05-01T11:16:13.887Z,1015.05
2019-05-01T11:17:13.797Z,1015.06
2019-05-01T11:18:13.778Z,1015.03
2019-05-01T11:19:13.747Z,1015.07
2019-05-01T11:20:13.818Z,1015.04
2019-05-01T11:21:13.699Z,1015.04
2019-05-01T11:22:13.728Z,1015.03
2019-05-01T11:23:13.657Z,1015.06
2019-05-01T11:24:13.638Z,1015.05
2019-05-01T11:25:13.648Z,1015.04
2019-05-01T11:26:13.579Z,1015.04
2019-05-01T11:27:13.656Z,1015.04
2019-05-01T11:28:13.529Z,1015.04
2019-05-01T11:29:13.508Z,1015.04
2019-05-01T11:30:13.499Z,1015.04
2019-05-01T11:31:13.486Z,1015.02
2019-05-01T11:32:13.442Z,1015.04
2019-05-01T11:33:13.512Z,1015.03
2019-05-01T11:34:13.388Z,1015.03
2019-05-01T11:35:13.408Z,1015.02
2019-05-01T11:36:13.339Z,1015.00
2019-05-01T11:37:13.439Z,1015.01
2019-05-01T11:38:13.288Z,1015.03
2019-05-01T11:39:13.352Z,1015.05
2019-05-01T11:40:13.249Z,1015.04
2019-05-01T11:41:13.353Z,1015.03
2019-05-01T11:42:13.200Z,1015.05
2019-05-01T11:43:13.267Z,1014.99
2019-05-01T11:44:13.158Z,1015.01
2019-05-01T11:45:13.127Z,1015.03
2019-05-01T11:46:13.108Z,1015.03
2019-05-01T11:47:13.196Z,1015.01
2019-05-01T11:48:13.057Z,1015.01
2019-05-01T11:49:13.108Z,1014.94
2019-05-01T11:50:13.019Z,1014.98
2019-05-01T11:51:13.010Z,1014.97
2019-05-01T11:52:12.961Z,1014.97
2019-05-01T11:53:13.028Z,1014.98
2019-05-01T11:54:13.002Z,1014.97
2019-05-01T11:55:12.937Z,1014.95
2019-05-01T11:56:12.870Z,1014.96
2019-05-01T11:57:12.947Z,1014.95
2019-05-01T11:58:12.817Z,1014.92
2019-05-01T11:59:12.857Z,1014.89
2019-05-01T12:00:12.778Z,1014.89
2019-05-01T12:01:12.751Z,1014.90
2019-05-01T12:02:12.779Z,1014.89
2019-05-01T12:03:12.707Z,1014.82
2019-05-01T12:04:12.687Z,1014.83
2019-05-01T12:05:12.656Z,1014.82